Airfield :
LOGIN :

Register | Disclaimer

   EN    FR    IT 

 










Legend :    VFR   Marginal VFR   IFR   Intensive IFR   Very Intensive IFR
Visi :
Ceiling :
>= 8 km
>= 3000ft
5 to 8 km
1000 to 3000 ft
1500m to 5 km
500 to 1000 ft
800 to 1500m
200 to 500 ft
< 800m
< 200 ft
Symbols :   Thunderstorms  Fog  Heavy snow  Heavy precipitations  Wind > 20 kt
SIGMETs :     Misc.  Thunderstorms  Icing  Turbulence  Mountain Waves  Volcanic Ashes






- Airport Elevation : 1273 ft
- IATA code : LJU


LJLJ - Ljubljana

CURRENT METAR :
  • 011230Z VRB01KT 9999 -RA FEW015 OVC040 04/02 Q1020 NOSIG

EXPIRED METARs :
  • 011200Z 22002KT 9999 -RA FEW006 OVC047 04/02 Q1020 NOSIG
  • 011130Z 26003KT 9999 -RA FEW006 SCT045 OVC055 04/02 Q1020 NOSIG
  • 011100Z VRB01KT 9999 FEW008 SCT040 OVC050 04/02 Q1020 TEMPO -RA
  • 011030Z 27003KT 240V300 9999 -RA FEW007 SCT035 OVC047 04/02 Q1021 NOSIG
  • 011000Z VRB02KT 9999 -RA FEW007 SCT040 OVC050 04/02 Q1021 NOSIG
  • 010930Z 27004KT 230V300 9999 FEW007 OVC045 03/02 Q1021 TEMPO -RA

TAF TAF LJLJ
Valid from the 01 at 12:00 until the 02 at 12:00 UTC


011100Z 0112/0212 VRB02KT 7000 SCT015 BKN035
TEMPO 0112/0212 3500 -RASN BR BKN015 OVC025
PROB30
TEMPO 0123/0206 2000 SN BR SCT005 OVC010



MET'MAP, your aeronautical weather chart ! - Copyright ORBIFLY December 2007 - Disclaimer

ORBIFLY MET'MAP TEAM :

Programming & Development : Alexandra Zaïnal
Original concept : Baudouin d'Aumeries
Technical & hardware support : Manuel Goepfert
Assistance : Marc-Olivier Méhu




SOURCES & CREDITS :

   NOAA